sensor_id;sensor_type;location;lat;lon;timestamp;pressure;altitude;pressure_sealevel;temperature;humidity
84935;BME280;75205;53.820;10.730;2024-02-21T00:00:28;101649.53;;;9.16;91.39
84935;BME280;75205;53.820;10.730;2024-02-21T00:02:54;101652.19;;;9.18;91.10
84935;BME280;75205;53.820;10.730;2024-02-21T00:05:25;101645.31;;;9.17;90.32
84935;BME280;75205;53.820;10.730;2024-02-21T00:07:51;101647.00;;;9.16;91.85
84935;BME280;75205;53.820;10.730;2024-02-21T00:10:18;101641.75;;;9.15;92.24
84935;BME280;75205;53.820;10.730;2024-02-21T00:12:45;101648.44;;;9.13;90.74
84935;BME280;75205;53.820;10.730;2024-02-21T00:15:11;101636.38;;;9.10;90.48
84935;BME280;75205;53.820;10.730;2024-02-21T00:17:38;101632.38;;;9.14;91.11
84935;BME280;75205;53.820;10.730;2024-02-21T00:20:05;101637.88;;;9.20;90.13
84935;BME280;75205;53.820;10.730;2024-02-21T00:22:31;101627.59;;;9.18;90.44
84935;BME280;75205;53.820;10.730;2024-02-21T00:25:00;101632.03;;;9.21;90.24
84935;BME280;75205;53.820;10.730;2024-02-21T00:27:26;101631.31;;;9.23;90.58
84935;BME280;75205;53.820;10.730;2024-02-21T00:29:52;101621.94;;;9.22;91.04
84935;BME280;75205;53.820;10.730;2024-02-21T00:32:19;101609.22;;;9.22;91.30
84935;BME280;75205;53.820;10.730;2024-02-21T00:34:45;101599.22;;;9.25;92.25
84935;BME280;75205;53.820;10.730;2024-02-21T00:37:12;101616.06;;;9.23;90.08
84935;BME280;75205;53.820;10.730;2024-02-21T00:39:39;101608.94;;;9.31;91.47
84935;BME280;75205;53.820;10.730;2024-02-21T00:42:05;101599.66;;;9.31;90.05
84935;BME280;75205;53.820;10.730;2024-02-21T00:44:33;101598.94;;;9.34;89.39
84935;BME280;75205;53.820;10.730;2024-02-21T00:47:00;101589.66;;;9.34;89.54
84935;BME280;75205;53.820;10.730;2024-02-21T00:49:26;101585.66;;;9.38;89.90
84935;BME280;75205;53.820;10.730;2024-02-21T00:51:53;101590.75;;;9.38;89.88
84935;BME280;75205;53.820;10.730;2024-02-21T00:54:19;101586.50;;;9.38;88.25
84935;BME280;75205;53.820;10.730;2024-02-21T00:56:46;101582.50;;;9.42;89.01
84935;BME280;75205;53.820;10.730;2024-02-21T00:59:12;101574.19;;;9.44;89.96
84935;BME280;75205;53.820;10.730;2024-02-21T01:01:39;101568.41;;;9.47;89.90
84935;BME280;75205;53.820;10.730;2024-02-21T01:04:09;101567.41;;;9.45;88.99
84935;BME280;75205;53.820;10.730;2024-02-21T01:06:36;101571.84;;;9.47;89.07
84935;BME280;75205;53.820;10.730;2024-02-21T01:09:02;101566.06;;;9.50;89.75
84935;BME280;75205;53.820;10.730;2024-02-21T01:11:29;101559.41;;;9.52;89.61
84935;BME280;75205;53.820;10.730;2024-02-21T01:13:55;101557.84;;;9.54;90.84
84935;BME280;75205;53.820;10.730;2024-02-21T01:16:22;101551.66;;;9.50;88.94
84935;BME280;75205;53.820;10.730;2024-02-21T01:18:48;101547.28;;;9.48;90.09
84935;BME280;75205;53.820;10.730;2024-02-21T01:21:15;101543.94;;;9.49;90.13
84935;BME280;75205;53.820;10.730;2024-02-21T01:23:41;101540.50;;;9.48;89.33
84935;BME280;75205;53.820;10.730;2024-02-21T01:26:08;101547.28;;;9.48;89.00
84935;BME280;75205;53.820;10.730;2024-02-21T01:28:34;101532.75;;;9.47;91.40
84935;BME280;75205;53.820;10.730;2024-02-21T01:31:01;101538.03;;;9.37;92.24
84935;BME280;75205;53.820;10.730;2024-02-21T01:33:28;101534.81;;;9.26;91.04
84935;BME280;75205;53.820;10.730;2024-02-21T01:35:56;101532.03;;;9.23;91.05
84935;BME280;75205;53.820;10.730;2024-02-21T01:38:23;101525.09;;;9.21;90.62
84935;BME280;75205;53.820;10.730;2024-02-21T01:40:49;101516.66;;;9.22;91.64
84935;BME280;75205;53.820;10.730;2024-02-21T01:43:17;101516.19;;;9.14;91.89
84935;BME280;75205;53.820;10.730;2024-02-21T01:45:49;101510.56;;;9.07;92.35
84935;BME280;75205;53.820;10.730;2024-02-21T01:48:17;101507.84;;;9.04;92.54
84935;BME280;75205;53.820;10.730;2024-02-21T01:50:44;101506.66;;;8.98;93.11
84935;BME280;75205;53.820;10.730;2024-02-21T01:53:11;101497.16;;;8.96;93.78
84935;BME280;75205;53.820;10.730;2024-02-21T01:55:47;101493.44;;;8.91;92.58
84935;BME280;75205;53.820;10.730;2024-02-21T01:58:14;101494.31;;;8.91;94.19
84935;BME280;75205;53.820;10.730;2024-02-21T02:00:44;101492.44;;;8.89;92.98
84935;BME280;75205;53.820;10.730;2024-02-21T02:03:12;101483.16;;;8.89;94.06
84935;BME280;75205;53.820;10.730;2024-02-21T02:05:48;101479.63;;;8.87;93.54
84935;BME280;75205;53.820;10.730;2024-02-21T02:08:16;101461.81;;;8.87;92.82
84935;BME280;75205;53.820;10.730;2024-02-21T02:10:42;101474.53;;;8.87;94.26
84935;BME280;75205;53.820;10.730;2024-02-21T02:13:09;101465.34;;;8.89;93.50
84935;BME280;75205;53.820;10.730;2024-02-21T02:15:46;101461.72;;;8.86;93.35
84935;BME280;75205;53.820;10.730;2024-02-21T02:18:13;101453.19;;;8.85;93.94
84935;BME280;75205;53.820;10.730;2024-02-21T02:20:40;101441.47;;;8.87;94.31
84935;BME280;75205;53.820;10.730;2024-02-21T02:23:10;101437.94;;;8.85;94.33
84935;BME280;75205;53.820;10.730;2024-02-21T02:25:38;101426.00;;;8.84;94.67
84935;BME280;75205;53.820;10.730;2024-02-21T02:28:08;101421.78;;;8.85;94.62
84935;BME280;75205;53.820;10.730;2024-02-21T02:30:35;101404.06;;;8.86;94.31
84935;BME280;75205;53.820;10.730;2024-02-21T02:33:02;101380.69;;;8.92;94.74
84935;BME280;75205;53.820;10.730;2024-02-21T02:35:30;101371.41;;;8.92;94.69
84935;BME280;75205;53.820;10.730;2024-02-21T02:37:56;101356.06;;;8.91;93.76
84935;BME280;75205;53.820;10.730;2024-02-21T02:40:23;101359.38;;;8.90;93.61
84935;BME280;75205;53.820;10.730;2024-02-21T02:42:50;101355.25;;;8.92;94.05
84935;BME280;75205;53.820;10.730;2024-02-21T02:45:17;101340.38;;;8.98;94.90
84935;BME280;75205;53.820;10.730;2024-02-21T02:47:44;101351.53;;;9.00;93.47
84935;BME280;75205;53.820;10.730;2024-02-21T02:50:10;101353.59;;;9.06;93.47
84935;BME280;75205;53.820;10.730;2024-02-21T02:52:37;101354.59;;;9.08;93.40
84935;BME280;75205;53.820;10.730;2024-02-21T02:55:04;101343.78;;;9.12;93.78
84935;BME280;75205;53.820;10.730;2024-02-21T02:57:31;101348.97;;;9.13;93.37
84935;BME280;75205;53.820;10.730;2024-02-21T02:59:58;101347.13;;;9.11;92.65
84935;BME280;75205;53.820;10.730;2024-02-21T03:02:25;101339.50;;;9.11;93.25
84935;BME280;75205;53.820;10.730;2024-02-21T03:04:51;101344.78;;;9.14;93.25
84935;BME280;75205;53.820;10.730;2024-02-21T03:07:18;101341.44;;;9.15;92.77
84935;BME280;75205;53.820;10.730;2024-02-21T03:09:44;101340.84;;;9.19;93.92
84935;BME280;75205;53.820;10.730;2024-02-21T03:12:11;101345.94;;;9.19;94.18
84935;BME280;75205;53.820;10.730;2024-02-21T03:14:37;101338.31;;;9.19;93.03
84935;BME280;75205;53.820;10.730;2024-02-21T03:17:04;101338.69;;;9.25;93.98
84935;BME280;75205;53.820;10.730;2024-02-21T03:19:31;101336.03;;;9.23;92.16
84935;BME280;75205;53.820;10.730;2024-02-21T03:21:57;101344.00;;;9.28;92.57
84935;BME280;75205;53.820;10.730;2024-02-21T03:24:24;101336.63;;;9.32;93.09
84935;BME280;75205;53.820;10.730;2024-02-21T03:26:50;101339.25;;;9.34;92.66
84935;BME280;75205;53.820;10.730;2024-02-21T03:29:17;101352.97;;;9.36;92.82
84935;BME280;75205;53.820;10.730;2024-02-21T03:31:43;101349.63;;;9.37;92.25
84935;BME280;75205;53.820;10.730;2024-02-21T03:34:10;101360.72;;;9.37;91.53
84935;BME280;75205;53.820;10.730;2024-02-21T03:36:37;101349.81;;;9.40;91.89
84935;BME280;75205;53.820;10.730;2024-02-21T03:39:03;101355.88;;;9.42;91.32
84935;BME280;75205;53.820;10.730;2024-02-21T03:41:30;101357.94;;;9.47;92.57
84935;BME280;75205;53.820;10.730;2024-02-21T03:43:56;101366.25;;;9.45;91.43
84935;BME280;75205;53.820;10.730;2024-02-21T03:46:24;101376.56;;;9.46;90.96
84935;BME280;75205;53.820;10.730;2024-02-21T03:48:50;101374.13;;;9.48;91.90
84935;BME280;75205;53.820;10.730;2024-02-21T03:51:17;101371.56;;;9.48;91.12
84935;BME280;75205;53.820;10.730;2024-02-21T03:53:43;101371.56;;;9.48;91.65
84935;BME280;75205;53.820;10.730;2024-02-21T03:56:10;101370.59;;;9.46;93.25
84935;BME280;75205;53.820;10.730;2024-02-21T03:58:36;101353.16;;;9.39;92.38
84935;BME280;75205;53.820;10.730;2024-02-21T04:01:03;101351.09;;;9.33;93.22
84935;BME280;75205;53.820;10.730;2024-02-21T04:03:30;101348.28;;;9.29;93.31
84935;BME280;75205;53.820;10.730;2024-02-21T04:05:57;101342.22;;;9.27;92.53
84935;BME280;75205;53.820;10.730;2024-02-21T04:08:23;101338.91;;;9.28;92.75
84935;BME280;75205;53.820;10.730;2024-02-21T04:10:50;101334.00;;;9.31;93.68
84935;BME280;75205;53.820;10.730;2024-02-21T04:13:17;101328.81;;;9.29;92.49
84935;BME280;75205;53.820;10.730;2024-02-21T04:15:43;101321.25;;;9.31;92.76
84935;BME280;75205;53.820;10.730;2024-02-21T04:18:10;101323.91;;;9.32;92.15
84935;BME280;75205;53.820;10.730;2024-02-21T04:20:36;101314.69;;;9.34;92.11
84935;BME280;75205;53.820;10.730;2024-02-21T04:23:03;101307.16;;;9.36;92.69
84935;BME280;75205;53.820;10.730;2024-02-21T04:25:29;101307.81;;;9.33;91.62
84935;BME280;75205;53.820;10.730;2024-02-21T04:27:56;101297.06;;;9.37;92.45
84935;BME280;75205;53.820;10.730;2024-02-21T04:30:22;101305.75;;;9.41;92.54
84935;BME280;75205;53.820;10.730;2024-02-21T04:32:49;101310.16;;;9.43;92.32
84935;BME280;75205;53.820;10.730;2024-02-21T04:35:15;101309.47;;;9.46;92.45
84935;BME280;75205;53.820;10.730;2024-02-21T04:37:43;101329.13;;;9.48;91.86
84935;BME280;75205;53.820;10.730;2024-02-21T04:40:11;101323.38;;;9.51;91.00
84935;BME280;75205;53.820;10.730;2024-02-21T04:42:37;101319.34;;;9.54;93.01
84935;BME280;75205;53.820;10.730;2024-02-21T04:45:04;101308.84;;;9.50;91.66
84935;BME280;75205;53.820;10.730;2024-02-21T04:47:30;101313.19;;;9.51;91.99
84935;BME280;75205;53.820;10.730;2024-02-21T04:49:57;101310.44;;;9.48;91.21
84935;BME280;75205;53.820;10.730;2024-02-21T04:52:24;101302.00;;;9.49;92.14
84935;BME280;75205;53.820;10.730;2024-02-21T04:54:50;101301.91;;;9.47;91.75
84935;BME280;75205;53.820;10.730;2024-02-21T04:57:17;101311.94;;;9.44;91.99
84935;BME280;75205;53.820;10.730;2024-02-21T04:59:44;101309.78;;;9.37;92.58
84935;BME280;75205;53.820;10.730;2024-02-21T05:02:11;101311.34;;;9.35;92.29
84935;BME280;75205;53.820;10.730;2024-02-21T05:04:42;101317.41;;;9.37;92.75
84935;BME280;75205;53.820;10.730;2024-02-21T05:07:08;101315.56;;;9.35;93.05
84935;BME280;75205;53.820;10.730;2024-02-21T05:09:37;101319.28;;;9.27;92.92
84935;BME280;75205;53.820;10.730;2024-02-21T05:12:04;101318.31;;;9.25;93.65
84935;BME280;75205;53.820;10.730;2024-02-21T05:14:30;101317.38;;;9.23;93.41
84935;BME280;75205;53.820;10.730;2024-02-21T05:16:57;101320.69;;;9.22;94.11
84935;BME280;75205;53.820;10.730;2024-02-21T05:19:23;101318.94;;;9.21;93.68
84935;BME280;75205;53.820;10.730;2024-02-21T05:21:50;101316.38;;;9.21;93.69
84935;BME280;75205;53.820;10.730;2024-02-21T05:24:17;101316.38;;;9.21;93.69
84935;BME280;75205;53.820;10.730;2024-02-21T05:26:43;101313.66;;;9.18;93.92
84935;BME280;75205;53.820;10.730;2024-02-21T05:29:10;101311.28;;;9.21;93.99
84935;BME280;75205;53.820;10.730;2024-02-21T05:31:54;101316.38;;;9.21;94.08
84935;BME280;75205;53.820;10.730;2024-02-21T05:34:21;101316.97;;;9.17;93.92
84935;BME280;75205;53.820;10.730;2024-02-21T05:36:48;101320.31;;;9.16;94.42
84935;BME280;75205;53.820;10.730;2024-02-21T05:39:15;101311.88;;;9.17;94.78
84935;BME280;75205;53.820;10.730;2024-02-21T05:41:45;101319.50;;;9.17;94.63
84935;BME280;75205;53.820;10.730;2024-02-21T05:44:11;101317.94;;;9.19;94.38
84935;BME280;75205;53.820;10.730;2024-02-21T05:46:38;101310.41;;;9.20;94.34
84935;BME280;75205;53.820;10.730;2024-02-21T05:49:04;101319.50;;;9.17;93.92
84935;BME280;75205;53.820;10.730;2024-02-21T05:51:34;101316.19;;;9.18;94.44
84935;BME280;75205;53.820;10.730;2024-02-21T05:54:00;101318.53;;;9.15;94.14
84935;BME280;75205;53.820;10.730;2024-02-21T05:56:27;101323.84;;;9.18;94.40
84935;BME280;75205;53.820;10.730;2024-02-21T05:58:54;101316.19;;;9.18;93.87
84935;BME280;75205;53.820;10.730;2024-02-21T06:01:21;101325.41;;;9.16;93.82
84935;BME280;75205;53.820;10.730;2024-02-21T06:03:48;101323.84;;;9.18;94.75
84935;BME280;75205;53.820;10.730;2024-02-21T06:06:14;101326.16;;;9.15;94.16
84935;BME280;75205;53.820;10.730;2024-02-21T06:08:40;101339.69;;;9.14;94.43
84935;BME280;75205;53.820;10.730;2024-02-21T06:11:07;101352.03;;;9.08;94.33
84935;BME280;75205;53.820;10.730;2024-02-21T06:13:37;101354.78;;;8.98;93.90
84935;BME280;75205;53.820;10.730;2024-02-21T06:16:04;101355.56;;;8.83;93.42
84935;BME280;75205;53.820;10.730;2024-02-21T06:18:30;101355.75;;;8.73;93.36
84935;BME280;75205;53.820;10.730;2024-02-21T06:20:57;101352.81;;;8.67;93.80
84935;BME280;75205;53.820;10.730;2024-02-21T06:23:23;101346.66;;;8.64;93.99
84935;BME280;75205;53.820;10.730;2024-02-21T06:25:50;101352.50;;;8.63;93.99
84935;BME280;75205;53.820;10.730;2024-02-21T06:28:16;101346.53;;;8.62;93.56
84935;BME280;75205;53.820;10.730;2024-02-21T06:30:42;101348.91;;;8.59;93.57
84935;BME280;75205;53.820;10.730;2024-02-21T06:33:09;101355.81;;;8.62;93.79
84935;BME280;75205;53.820;10.730;2024-02-21T06:35:35;101352.28;;;8.60;93.17
84935;BME280;75205;53.820;10.730;2024-02-21T06:38:02;101348.09;;;8.60;93.50
84935;BME280;75205;53.820;10.730;2024-02-21T06:40:29;101353.38;;;8.63;93.98
84935;BME280;75205;53.820;10.730;2024-02-21T06:42:57;101350.06;;;8.64;93.26
84935;BME280;75205;53.820;10.730;2024-02-21T06:45:24;101351.81;;;8.65;93.03
84935;BME280;75205;53.820;10.730;2024-02-21T06:47:50;101357.91;;;8.67;93.26
84935;BME280;75205;53.820;10.730;2024-02-21T06:50:16;101362.19;;;8.68;93.50
84935;BME280;75205;53.820;10.730;2024-02-21T06:52:43;101364.16;;;8.72;93.75
84935;BME280;75205;53.820;10.730;2024-02-21T06:55:10;101360.06;;;8.74;93.49
84935;BME280;75205;53.820;10.730;2024-02-21T06:57:36;101369.63;;;8.78;93.39
84935;BME280;75205;53.820;10.730;2024-02-21T07:00:03;101355.44;;;8.82;93.27
84935;BME280;75205;53.820;10.730;2024-02-21T07:02:29;101365.72;;;8.83;92.96
84935;BME280;75205;53.820;10.730;2024-02-21T07:04:56;101375.31;;;8.87;93.08
84935;BME280;75205;53.820;10.730;2024-02-21T07:07:22;101361.91;;;8.90;93.20
84935;BME280;75205;53.820;10.730;2024-02-21T07:09:49;101361.91;;;8.90;93.17
84935;BME280;75205;53.820;10.730;2024-02-21T07:12:15;101360.34;;;8.92;93.18
84935;BME280;75205;53.820;10.730;2024-02-21T07:14:42;101354.59;;;8.94;93.35
84935;BME280;75205;53.820;10.730;2024-02-21T07:17:08;101355.75;;;9.00;93.43
84935;BME280;75205;53.820;10.730;2024-02-21T07:19:35;101360.06;;;9.01;92.85
84935;BME280;75205;53.820;10.730;2024-02-21T07:22:02;101353.41;;;9.03;92.66
84935;BME280;75205;53.820;10.730;2024-02-21T07:24:28;101357.69;;;9.04;93.16
84935;BME280;75205;53.820;10.730;2024-02-21T07:26:55;101350.34;;;9.08;93.37
84935;BME280;75205;53.820;10.730;2024-02-21T07:29:22;101347.72;;;9.07;93.07
84935;BME280;75205;53.820;10.730;2024-02-21T07:31:48;101353.00;;;9.10;93.29
84935;BME280;75205;53.820;10.730;2024-02-21T07:34:15;101346.75;;;9.18;93.29
84935;BME280;75205;53.820;10.730;2024-02-21T07:36:42;101348.19;;;9.27;93.63
84935;BME280;75205;53.820;10.730;2024-02-21T07:39:09;101342.59;;;9.33;92.67
84935;BME280;75205;53.820;10.730;2024-02-21T07:41:35;101342.78;;;9.36;92.45
84935;BME280;75205;53.820;10.730;2024-02-21T07:44:02;101334.34;;;9.37;92.09
84935;BME280;75205;53.820;10.730;2024-02-21T07:46:29;101335.81;;;9.46;92.70
84935;BME280;75205;53.820;10.730;2024-02-21T07:48:56;101341.28;;;9.52;92.33
84935;BME280;75205;53.820;10.730;2024-02-21T07:51:22;101351.81;;;9.58;93.24
84935;BME280;75205;53.820;10.730;2024-02-21T07:53:53;101347.41;;;9.69;92.88
84935;BME280;75205;53.820;10.730;2024-02-21T07:56:19;101360.03;;;9.67;91.62
84935;BME280;75205;53.820;10.730;2024-02-21T07:58:46;101366.78;;;9.67;92.10
84935;BME280;75205;53.820;10.730;2024-02-21T08:01:18;101369.53;;;9.70;91.98
84935;BME280;75205;53.820;10.730;2024-02-21T08:03:44;101367.59;;;9.66;91.26
84935;BME280;75205;53.820;10.730;2024-02-21T08:06:11;101364.44;;;9.70;91.66
84935;BME280;75205;53.820;10.730;2024-02-21T08:08:39;101360.41;;;9.73;92.39
84935;BME280;75205;53.820;10.730;2024-02-21T08:11:05;101349.44;;;9.74;91.58
84935;BME280;75205;53.820;10.730;2024-02-21T08:13:32;101345.22;;;9.75;91.18
84935;BME280;75205;53.820;10.730;2024-02-21T08:15:58;101344.03;;;9.83;91.46
84935;BME280;75205;53.820;10.730;2024-02-21T08:18:25;101343.81;;;9.80;90.56
84935;BME280;75205;53.820;10.730;2024-02-21T08:20:52;101349.78;;;9.66;90.21
84935;BME280;75205;53.820;10.730;2024-02-21T08:23:18;101358.72;;;9.59;90.16
84935;BME280;75205;53.820;10.730;2024-02-21T08:25:45;101352.25;;;9.79;91.33
84935;BME280;75205;53.820;10.730;2024-02-21T08:28:13;101347.63;;;10.14;89.90
84935;BME280;75205;53.820;10.730;2024-02-21T08:30:39;101347.31;;;10.23;89.94
84935;BME280;75205;53.820;10.730;2024-02-21T08:33:06;101352.22;;;10.19;89.48
84935;BME280;75205;53.820;10.730;2024-02-21T08:35:33;101347.13;;;10.34;89.83
84935;BME280;75205;53.820;10.730;2024-02-21T08:37:59;101334.63;;;10.53;89.06
84935;BME280;75205;53.820;10.730;2024-02-21T08:40:26;101348.44;;;10.57;89.02
84935;BME280;75205;53.820;10.730;2024-02-21T08:42:52;101354.44;;;10.57;90.95
84935;BME280;75205;53.820;10.730;2024-02-21T08:45:20;101341.16;;;10.63;88.24
84935;BME280;75205;53.820;10.730;2024-02-21T08:47:46;101339.91;;;10.71;86.23
84935;BME280;75205;53.820;10.730;2024-02-21T08:50:12;101334.88;;;10.87;87.26
84935;BME280;75205;53.820;10.730;2024-02-21T08:52:53;101327.84;;;11.13;85.02
84935;BME280;75205;53.820;10.730;2024-02-21T08:55:19;101318.44;;;11.43;85.34
84935;BME280;75205;53.820;10.730;2024-02-21T08:57:46;101326.22;;;11.93;84.13
84935;BME280;75205;53.820;10.730;2024-02-21T09:00:14;101330.38;;;12.40;84.00
84935;BME280;75205;53.820;10.730;2024-02-21T09:02:41;101336.63;;;11.96;83.68
84935;BME280;75205;53.820;10.730;2024-02-21T09:05:11;101330.31;;;11.42;86.16
84935;BME280;75205;53.820;10.730;2024-02-21T09:07:38;101319.50;;;11.46;84.06
84935;BME280;75205;53.820;10.730;2024-02-21T09:10:04;101330.72;;;11.50;83.17
84935;BME280;75205;53.820;10.730;2024-02-21T09:12:31;101333.53;;;11.55;84.93
84935;BME280;75205;53.820;10.730;2024-02-21T09:14:58;101337.31;;;11.30;86.30
84935;BME280;75205;53.820;10.730;2024-02-21T09:17:24;101344.06;;;11.14;84.84
84935;BME280;75205;53.820;10.730;2024-02-21T09:19:51;101345.44;;;11.23;85.88
84935;BME280;75205;53.820;10.730;2024-02-21T09:22:18;101335.69;;;11.47;82.63
84935;BME280;75205;53.820;10.730;2024-02-21T09:24:45;101345.22;;;11.82;84.54
84935;BME280;75205;53.820;10.730;2024-02-21T09:27:11;101335.00;;;11.82;79.70
84935;BME280;75205;53.820;10.730;2024-02-21T09:29:38;101335.25;;;11.70;80.62
84935;BME280;75205;53.820;10.730;2024-02-21T09:32:06;101335.16;;;11.69;80.63
84935;BME280;75205;53.820;10.730;2024-02-21T09:34:33;101335.94;;;11.52;81.86
84935;BME280;75205;53.820;10.730;2024-02-21T09:36:59;101334.16;;;11.50;83.26
84935;BME280;75205;53.820;10.730;2024-02-21T09:39:26;101327.00;;;11.60;79.45
84935;BME280;75205;53.820;10.730;2024-02-21T09:41:58;101336.63;;;11.96;80.78
84935;BME280;75205;53.820;10.730;2024-02-21T09:44:27;101329.53;;;12.40;77.73
84935;BME280;75205;53.820;10.730;2024-02-21T09:47:01;101345.84;;;12.77;80.62
84935;BME280;75205;53.820;10.730;2024-02-21T09:49:32;101328.50;;;12.54;78.46
84935;BME280;75205;53.820;10.730;2024-02-21T09:52:04;101323.31;;;12.19;77.96
84935;BME280;75205;53.820;10.730;2024-02-21T09:54:32;101331.47;;;12.97;80.05
84935;BME280;75205;53.820;10.730;2024-02-21T09:57:07;101319.03;;;13.77;76.54
84935;BME280;75205;53.820;10.730;2024-02-21T09:59:34;101329.66;;;14.25;74.48
84935;BME280;75205;53.820;10.730;2024-02-21T10:02:01;101334.25;;;14.13;77.80
84935;BME280;75205;53.820;10.730;2024-02-21T10:04:29;101317.47;;;13.62;77.08
84935;BME280;75205;53.820;10.730;2024-02-21T10:06:56;101315.84;;;13.08;74.44
84935;BME280;75205;53.820;10.730;2024-02-21T10:09:23;101325.31;;;12.58;77.76
84935;BME280;75205;53.820;10.730;2024-02-21T10:11:50;101330.91;;;14.14;77.27
84935;BME280;75205;53.820;10.730;2024-02-21T10:14:18;101322.91;;;15.75;67.88
84935;BME280;75205;53.820;10.730;2024-02-21T10:16:47;101316.94;;;16.00;68.72
84935;BME280;75205;53.820;10.730;2024-02-21T10:19:18;101318.19;;;15.87;67.70
84935;BME280;75205;53.820;10.730;2024-02-21T10:22:01;101321.38;;;15.36;69.76
84935;BME280;75205;53.820;10.730;2024-02-21T10:24:30;101319.63;;;15.57;66.96
84935;BME280;75205;53.820;10.730;2024-02-21T10:29:27;101328.38;;;14.34;74.20
84935;BME280;75205;53.820;10.730;2024-02-21T10:32:03;101325.63;;;14.11;69.83
84935;BME280;75205;53.820;10.730;2024-02-21T10:34:30;101321.47;;;13.93;80.56
84935;BME280;75205;53.820;10.730;2024-02-21T10:37:00;101310.94;;;14.67;73.90
84935;BME280;75205;53.820;10.730;2024-02-21T10:39:27;101323.34;;;14.99;77.76
84935;BME280;75205;53.820;10.730;2024-02-21T10:41:56;101319.31;;;14.63;76.26
84935;BME280;75205;53.820;10.730;2024-02-21T10:44:25;101313.28;;;15.03;75.14
84935;BME280;75205;53.820;10.730;2024-02-21T10:46:55;101320.09;;;15.69;80.93
84935;BME280;75205;53.820;10.730;2024-02-21T10:49:25;101308.94;;;15.92;71.30
84935;BME280;75205;53.820;10.730;2024-02-21T10:52:15;101298.88;;;15.31;73.91
84935;BME280;75205;53.820;10.730;2024-02-21T10:57:16;101304.59;;;15.22;74.76
84935;BME280;75205;53.820;10.730;2024-02-21T10:59:44;101306.16;;;14.76;73.98
84935;BME280;75205;53.820;10.730;2024-02-21T11:02:11;101298.84;;;14.44;81.57
84935;BME280;75205;53.820;10.730;2024-02-21T11:04:40;101297.09;;;14.43;78.11
84935;BME280;75205;53.820;10.730;2024-02-21T11:07:07;101281.13;;;14.70;71.36
84935;BME280;75205;53.820;10.730;2024-02-21T11:09:36;101290.28;;;14.04;77.91
84935;BME280;75205;53.820;10.730;2024-02-21T11:12:04;101293.88;;;13.13;78.59
84935;BME280;75205;53.820;10.730;2024-02-21T11:14:31;101286.25;;;12.62;79.19
84935;BME280;75205;53.820;10.730;2024-02-21T11:16:59;101284.22;;;12.55;81.49
84935;BME280;75205;53.820;10.730;2024-02-21T11:19:26;101286.66;;;12.36;81.35
84935;BME280;75205;53.820;10.730;2024-02-21T11:21:54;101289.03;;;12.15;84.74
84935;BME280;75205;53.820;10.730;2024-02-21T11:27:07;101270.44;;;11.53;83.85
84935;BME280;75205;53.820;10.730;2024-02-21T11:29:33;101269.56;;;11.37;82.25
84935;BME280;75205;53.820;10.730;2024-02-21T11:32:09;101268.13;;;11.26;83.73
84935;BME280;75205;53.820;10.730;2024-02-21T11:34:35;101265.03;;;11.31;84.01
84935;BME280;75205;53.820;10.730;2024-02-21T11:37:02;101255.28;;;11.24;85.39
84935;BME280;75205;53.820;10.730;2024-02-21T11:39:38;101254.94;;;11.18;86.59
84935;BME280;75205;53.820;10.730;2024-02-21T11:42:07;101242.66;;;11.11;86.85
84935;BME280;75205;53.820;10.730;2024-02-21T11:44:34;101235.31;;;11.01;86.98
84935;BME280;75205;53.820;10.730;2024-02-21T11:47:01;101234.56;;;11.04;86.59
84935;BME280;75205;53.820;10.730;2024-02-21T11:49:30;101234.81;;;11.08;87.57
84935;BME280;75205;53.820;10.730;2024-02-21T11:52:00;101229.25;;;11.15;87.66
84935;BME280;75205;53.820;10.730;2024-02-21T11:54:27;101226.38;;;11.25;87.19
84935;BME280;75205;53.820;10.730;2024-02-21T11:56:54;101230.72;;;11.26;88.65
84935;BME280;75205;53.820;10.730;2024-02-21T11:59:20;101230.84;;;11.13;88.93
84935;BME280;75205;53.820;10.730;2024-02-21T12:01:48;101216.63;;;11.18;88.21
84935;BME280;75205;53.820;10.730;2024-02-21T12:06:59;101208.34;;;11.06;89.87
84935;BME280;75205;53.820;10.730;2024-02-21T12:09:25;101195.16;;;10.99;88.06
84935;BME280;75205;53.820;10.730;2024-02-21T12:12:04;101189.66;;;11.07;87.75
84935;BME280;75205;53.820;10.730;2024-02-21T12:14:32;101185.06;;;11.16;88.27
84935;BME280;75205;53.820;10.730;2024-02-21T12:16:59;101183.38;;;11.17;88.06
84935;BME280;75205;53.820;10.730;2024-02-21T12:19:28;101187.19;;;11.09;90.14
84935;BME280;75205;53.820;10.730;2024-02-21T12:21:55;101188.94;;;10.94;89.71
84935;BME280;75205;53.820;10.730;2024-02-21T12:24:24;101183.97;;;10.81;88.49
84935;BME280;75205;53.820;10.730;2024-02-21T12:26:51;101175.44;;;10.80;90.18
84935;BME280;75205;53.820;10.730;2024-02-21T12:29:21;101174.81;;;10.84;90.67
84935;BME280;75205;53.820;10.730;2024-02-21T12:31:47;101172.88;;;10.80;91.38
84935;BME280;75205;53.820;10.730;2024-02-21T12:34:15;101169.38;;;10.78;91.34
84935;BME280;75205;53.820;10.730;2024-02-21T12:36:45;101161.25;;;10.69;89.96
84935;BME280;75205;53.820;10.730;2024-02-21T12:39:13;101156.28;;;10.72;90.49
84935;BME280;75205;53.820;10.730;2024-02-21T12:41:40;101161.47;;;10.74;91.34
84935;BME280;75205;53.820;10.730;2024-02-21T12:44:09;101166.34;;;10.69;90.61
84935;BME280;75205;53.820;10.730;2024-02-21T12:46:37;101157.84;;;10.54;89.39
84935;BME280;75205;53.820;10.730;2024-02-21T12:49:04;101155.53;;;10.43;90.17
84935;BME280;75205;53.820;10.730;2024-02-21T12:51:31;101157.03;;;10.39;89.88
84935;BME280;75205;53.820;10.730;2024-02-21T12:53:57;101158.47;;;10.50;90.09
84935;BME280;75205;53.820;10.730;2024-02-21T12:56:25;101157.69;;;10.51;90.86
84935;BME280;75205;53.820;10.730;2024-02-21T12:58:55;101142.88;;;10.60;90.93